Hampton Beach, New Hampshire
Current Conditions -  °F | °C
As of 4:28 PM on Monday 24 Nov 2014 (Local Time) from KPSM Reporting Station
Broken Clouds Broken Clouds  
Wind Chill: 18°   Ceiling: 2200
Heat Index: 18°   Visibility: 10mi
Dew Point: 15°   Wind: 13mph
Humidity: 83%   Direction: 190°S
Pressure: 29.53"   Gusts: NA
Location:  42.9284°N, 70.8566°W
Report Text: KPSM 242128Z 19011KT 10SM BKN022 18/15 A2953 RMK AO2A
Loading
Personal Weather Stations






























Interactive Weather Map New forecast layout! Learn more

10-Day Weather Forecast

Advertisements
Track Severe Weather on mobile